Time;durP1;ratioP1;P1;durP2;ratioP2;P2;SDS_P1;SDS_P2;PMS_P1;PMS_P2;Temp;Humidity;BMP_temperature;BMP_pressure;BME280_temperature;BME280_humidity;BME280_pressure;Samples;Min_cycle;Max_cycle;Signal;HPM_P1;HPM_P2
2022/04/05 00:01:33;;;;;;;4.55;3.67;;;;;;;16.11;35.05;92561.22;5019183;28;20400;-91
2022/04/05 00:03:59;;;;;;;4.65;3.78;;;;;;;16.11;34.91;92555.03;5009615;28;20042;-91
2022/04/05 00:06:24;;;;;;;4.45;3.58;;;;;;;16.14;34.84;92556.00;5009509;28;20503;-91
2022/04/05 00:08:49;;;;;;;4.53;3.17;;;;;;;16.15;35.10;92552.75;5010983;28;20436;-91
2022/04/05 00:11:15;;;;;;;3.85;3.45;;;;;;;16.13;34.85;92549.06;5015996;28;20048;-91
2022/04/05 00:13:40;;;;;;;3.33;2.80;;;;;;;16.16;34.83;92542.59;5030134;28;20040;-91
2022/04/05 00:16:05;;;;;;;4.22;3.28;;;;;;;16.16;34.82;92556.22;5023078;28;20381;-90
2022/04/05 00:18:31;;;;;;;4.07;3.42;;;;;;;16.13;34.96;92536.16;5025249;28;20045;-90
2022/04/05 00:20:56;;;;;;;3.92;3.33;;;;;;;16.11;34.67;92544.13;5026649;28;20041;-90
2022/04/05 00:23:22;;;;;;;4.70;3.80;;;;;;;16.16;34.96;92523.50;5009992;28;20106;-90
2022/04/05 00:25:47;;;;;;;4.03;3.42;;;;;;;16.16;35.03;92535.13;5026066;28;20137;-91
2022/04/05 00:28:12;;;;;;;4.93;3.13;;;;;;;16.14;34.78;92524.00;5009668;28;20104;-89
2022/04/05 00:30:38;;;;;;;3.60;2.95;;;;;;;16.09;34.88;92525.56;5041980;28;20052;-90
2022/04/05 00:33:03;;;;;;;3.58;3.10;;;;;;;16.11;34.90;92522.31;5009192;28;20040;-91
2022/04/05 00:35:29;;;;;;;3.05;2.75;;;;;;;16.13;34.71;92514.34;5010307;28;20148;-91
2022/04/05 00:37:54;;;;;;;3.22;2.92;;;;;;;16.16;34.84;92521.50;5034363;28;20072;-91
2022/04/05 00:40:20;;;;;;;3.70;3.10;;;;;;;16.14;34.97;92521.28;5048946;28;20515;-91
2022/04/05 00:42:45;;;;;;;3.60;3.13;;;;;;;16.11;34.80;92511.41;5049555;28;20055;-90
2022/04/05 00:45:11;;;;;;;4.10;3.20;;;;;;;16.14;34.70;92521.28;5047008;28;20127;-90
2022/04/05 00:47:36;;;;;;;4.03;3.13;;;;;;;16.13;34.79;92505.44;5013223;28;20041;-90
2022/04/05 00:50:03;;;;;;;3.45;2.75;;;;;;;16.12;34.72;92507.44;5045422;28;20057;-88
2022/04/05 00:52:28;;;;;;;3.53;2.83;;;;;;;16.07;34.82;92492.63;5029775;28;20052;-91
2022/04/05 00:54:54;;;;;;;3.70;2.92;;;;;;;16.06;35.10;92498.59;5029895;28;20036;-90
2022/04/05 00:57:21;;;;;;;3.53;2.75;;;;;;;16.11;34.92;92495.78;5012219;28;20040;-91
2022/04/05 00:59:48;;;;;;;4.68;3.25;;;;;;;16.14;34.76;92482.38;5029523;28;20049;-92
2022/04/05 01:02:16;;;;;;;3.72;3.10;;;;;;;16.14;34.88;92490.56;5028872;28;20090;-90
2022/04/05 01:04:44;;;;;;;3.08;2.58;;;;;;;16.14;34.84;92488.56;5012827;28;20037;-90
2022/04/05 01:07:14;;;;;;;4.53;3.30;;;;;;;16.15;34.92;92486.56;5022840;28;20128;-90
2022/04/05 01:09:39;;;;;;;3.60;3.03;;;;;;;16.13;35.03;92483.63;5010558;28;20117;-90
2022/04/05 01:12:06;;;;;;;3.53;2.80;;;;;;;16.10;35.00;92485.41;5047446;28;20487;-92
2022/04/05 01:14:32;;;;;;;3.30;2.60;;;;;;;16.14;35.05;92482.38;5049188;28;20074;-90
2022/04/05 01:16:57;;;;;;;3.30;2.72;;;;;;;16.12;34.93;92485.63;5021988;28;20045;-90
2022/04/05 01:19:24;;;;;;;3.33;2.70;;;;;;;16.09;34.65;92483.94;5028319;28;20526;-89
2022/04/05 01:21:49;;;;;;;3.40;2.85;;;;;;;16.15;34.95;92470.22;5045939;28;20511;-91
2022/04/05 01:24:15;;;;;;;3.05;2.45;;;;;;;16.11;34.86;92463.06;5045347;28;20025;-90
2022/04/05 01:26:44;;;;;;;3.55;2.83;;;;;;;16.14;34.92;92466.03;5028951;28;20070;-90
2022/04/05 01:29:10;;;;;;;3.35;2.63;;;;;;;16.08;35.13;92461.38;5045493;28;20044;-89
2022/04/05 01:31:40;;;;;;;3.42;2.85;;;;;;;16.12;34.94;92466.53;5028604;28;20037;-89
2022/04/05 01:34:05;;;;;;;3.80;2.88;;;;;;;16.07;34.76;92468.09;5029052;28;20041;-90
2022/04/05 01:36:31;;;;;;;3.05;2.55;;;;;;;16.10;35.04;92463.59;5029018;28;20100;-90
2022/04/05 01:38:56;;;;;;;3.40;2.80;;;;;;;16.08;35.04;92460.63;5031918;28;20280;-91
2022/04/05 01:41:22;;;;;;;4.03;3.15;;;;;;;16.12;34.82;92458.34;5028158;28;20106;-91
2022/04/05 01:43:47;;;;;;;2.60;2.40;;;;;;;16.07;34.85;92451.00;5045412;28;20041;-91
2022/04/05 01:46:12;;;;;;;3.20;2.83;;;;;;;16.10;34.68;92453.41;5045124;28;20033;-91
2022/04/05 01:48:39;;;;;;;3.13;2.70;;;;;;;16.07;34.80;92449.00;5031268;28;20345;-90
2022/04/05 01:51:05;;;;;;;2.83;2.45;;;;;;;16.07;34.85;92446.28;5049992;28;20033;-91
2022/04/05 01:53:31;;;;;;;3.35;2.85;;;;;;;16.04;34.84;92436.41;5032920;28;20033;-90
2022/04/05 01:55:56;;;;;;;3.83;3.05;;;;;;;16.04;34.88;92432.94;5032869;28;20510;-91
2022/04/05 01:58:21;;;;;;;4.28;3.13;;;;;;;16.08;35.00;92439.56;5031594;28;20045;-91
2022/04/05 02:00:49;;;;;;;3.97;2.97;;;;;;;16.04;35.10;92436.41;5049630;28;20037;-91
2022/04/05 02:03:14;;;;;;;3.05;2.53;;;;;;;16.06;35.14;92427.72;5049123;28;20116;-90
2022/04/05 02:05:40;;;;;;;3.35;2.63;;;;;;;16.06;35.19;92423.00;5015873;28;20033;-91
2022/04/05 02:08:06;;;;;;;3.10;2.55;;;;;;;16.05;35.15;92429.69;5032083;28;20044;-90
2022/04/05 02:10:31;;;;;;;3.38;2.50;;;;;;;16.09;34.79;92427.41;5048354;28;20033;-90
2022/04/05 02:12:56;;;;;;;3.13;2.60;;;;;;;16.08;34.83;92419.75;5048954;28;20045;-91
2022/04/05 02:15:22;;;;;;;2.78;2.42;;;;;;;16.09;35.29;92416.50;5031747;28;20045;-89
2022/04/05 02:17:47;;;;;;;4.00;3.13;;;;;;;16.08;35.01;92420.47;5049330;28;20245;-91
2022/04/05 02:20:14;;;;;;;3.17;2.55;;;;;;;16.09;34.99;92418.50;5048443;28;20029;-89
2022/04/05 02:22:39;;;;;;;3.28;2.63;;;;;;;16.13;35.03;92410.03;5032646;28;20095;-91
2022/04/05 02:25:05;;;;;;;2.13;1.92;;;;;;;16.09;34.95;92402.13;5032212;28;20443;-90
2022/04/05 02:27:30;;;;;;;3.35;2.63;;;;;;;16.09;34.87;92402.13;5031656;28;20066;-89
2022/04/05 02:29:55;;;;;;;6.25;2.72;;;;;;;16.09;35.06;92402.88;5048466;28;20041;-89
2022/04/05 02:32:21;;;;;;;3.00;2.50;;;;;;;16.09;34.94;92396.69;5047890;28;20033;-89
2022/04/05 02:34:46;;;;;;;3.22;2.65;;;;;;;16.11;35.01;92394.19;5048752;28;20400;-92
2022/04/05 02:37:12;;;;;;;3.50;2.83;;;;;;;16.11;35.17;92391.44;5048392;28;20037;-89
2022/04/05 02:39:38;;;;;;;2.95;2.58;;;;;;;16.08;35.05;92397.94;5031574;28;20048;-90
2022/04/05 02:42:03;;;;;;;3.13;2.58;;;;;;;16.06;35.04;92398.47;5030414;28;20044;-90
2022/04/05 02:44:29;;;;;;;3.47;2.10;;;;;;;16.08;34.78;92404.13;5048470;28;20036;-91
2022/04/05 02:46:54;;;;;;;4.53;2.20;;;;;;;16.09;35.11;92402.88;5016054;28;20408;-90
2022/04/05 02:49:20;;;;;;;3.55;2.85;;;;;;;16.09;35.05;92407.59;5027896;28;20037;-89
2022/04/05 02:51:45;;;;;;;3.05;2.20;;;;;;;16.06;35.16;92406.63;5023465;28;20041;-89
2022/04/05 02:54:10;;;;;;;3.47;2.28;;;;;;;16.04;35.03;92414.59;5047907;28;20412;-90
2022/04/05 02:56:36;;;;;;;3.10;2.40;;;;;;;16.06;34.98;92411.34;5031584;28;20403;-91
2022/04/05 02:59:01;;;;;;;2.35;2.05;;;;;;;16.06;34.96;92403.19;5048118;28;20095;-89
2022/04/05 03:01:28;;;;;;;2.80;2.40;;;;;;;16.06;34.92;92406.63;5047500;28;20041;-90
2022/04/05 03:03:53;;;;;;;3.17;2.50;;;;;;;16.06;35.34;92403.91;5047140;28;20528;-90
2022/04/05 03:06:18;;;;;;;3.15;2.58;;;;;;;16.06;34.98;92403.91;5047660;28;20044;-90
2022/04/05 03:08:44;;;;;;;2.90;2.28;;;;;;;16.05;35.03;92398.97;5064800;28;20055;-90
2022/04/05 03:11:12;;;;;;;2.80;2.30;;;;;;;16.03;35.03;92390.59;5047678;28;20045;-91
2022/04/05 03:13:39;;;;;;;2.65;2.20;;;;;;;16.06;35.29;92398.47;5013858;28;20474;-92
2022/04/05 03:16:05;;;;;;;3.38;2.67;;;;;;;16.05;34.97;92398.97;5028309;28;20033;-91
2022/04/05 03:18:30;;;;;;;3.22;2.70;;;;;;;16.07;35.02;92391.75;5011405;28;20439;-89
2022/04/05 03:20:55;;;;;;;3.20;1.98;;;;;;;16.06;35.09;92393.00;5011914;28;20034;-91
2022/04/05 03:23:21;;;;;;;2.42;1.92;;;;;;;16.02;35.21;92389.13;5027518;28;20034;-91
2022/04/05 03:25:50;;;;;;;2.67;2.10;;;;;;;16.05;35.23;92388.81;5028440;28;20582;-91
2022/04/05 03:28:15;;;;;;;3.03;2.50;;;;;;;16.05;35.00;92382.63;5027147;28;20044;-90
2022/04/05 03:30:42;;;;;;;2.53;2.08;;;;;;;16.05;35.33;92388.81;5044238;28;20041;-89
2022/04/05 03:33:08;;;;;;;2.60;2.25;;;;;;;16.00;35.25;92397.09;5040897;28;20407;-90
2022/04/05 03:35:33;;;;;;;2.00;1.75;;;;;;;16.03;35.07;92382.41;5047600;28;20037;-91
2022/04/05 03:37:59;;;;;;;2.13;1.73;;;;;;;16.00;35.07;92381.47;5064029;28;20045;-90
2022/04/05 03:40:24;;;;;;;2.85;2.20;;;;;;;16.01;35.03;92382.94;5046702;28;20041;-90
2022/04/05 03:42:50;;;;;;;2.20;1.98;;;;;;;16.05;35.10;92382.63;5047314;28;20033;-89
2022/04/05 03:45:15;;;;;;;2.50;2.30;;;;;;;16.02;35.18;92381.66;5028653;28;20391;-90
2022/04/05 03:47:40;;;;;;;24.05;3.85;;;;;;;15.96;35.25;92377.56;5008422;28;20045;-91
2022/04/05 03:50:06;;;;;;;16.30;3.38;;;;;;;15.98;35.36;92377.78;5012442;28;20052;-91
2022/04/05 03:52:31;;;;;;;6.22;2.70;;;;;;;16.05;35.35;92377.16;5010661;28;20087;-89
2022/04/05 03:54:57;;;;;;;9.43;2.38;;;;;;;15.96;35.20;92370.13;4994142;28;20045;-90
2022/04/05 03:57:22;;;;;;;3.95;2.30;;;;;;;15.93;35.08;92382.06;5026400;28;20037;-89
2022/04/05 03:59:48;;;;;;;4.25;2.40;;;;;;;15.97;34.63;92379.78;5027924;28;20041;-89
2022/04/05 04:02:13;;;;;;;4.15;2.83;;;;;;;15.96;35.38;92381.03;5043074;28;20044;-90
2022/04/05 04:04:38;;;;;;;3.28;2.25;;;;;;;15.91;35.29;92370.94;5026576;28;20492;-90
2022/04/05 04:07:04;;;;;;;6.60;2.33;;;;;;;15.95;35.20;92376.09;5025964;28;20041;-90
2022/04/05 04:09:29;;;;;;;7.07;2.40;;;;;;;15.89;35.15;92378.19;5013096;28;20056;-91
2022/04/05 04:11:55;;;;;;;4.93;2.30;;;;;;;15.90;35.41;92369.47;5045918;28;20041;-90
2022/04/05 04:14:20;;;;;;;4.85;2.10;;;;;;;15.93;35.15;92373.16;5045649;28;20118;-90
2022/04/05 04:16:46;;;;;;;12.52;2.72;;;;;;;15.93;35.38;92373.16;5030377;28;20025;-91
2022/04/05 04:19:11;;;;;;;8.70;3.38;;;;;;;15.94;35.61;92369.91;5045101;28;20428;-90
2022/04/05 04:21:37;;;;;;;6.15;3.13;;;;;;;15.94;35.54;92361.75;5029060;28;20045;-92
2022/04/05 04:24:02;;;;;;;6.53;5.00;;;;;;;15.91;35.36;92365.50;5028954;28;20036;-89
2022/04/05 04:26:28;;;;;;;7.72;4.57;;;;;;;15.96;35.29;92367.41;5029359;28;20040;-90
2022/04/05 04:28:55;;;;;;;10.15;5.18;;;;;;;15.98;35.43;92359.44;5046127;28;20041;-88
2022/04/05 04:31:21;;;;;;;11.77;6.32;;;;;;;15.95;35.38;92368.66;5029039;28;20029;-90
2022/04/05 04:33:46;;;;;;;19.38;11.00;;;;;;;15.95;35.51;92371.38;5047264;28;20113;-89
2022/04/05 04:36:12;;;;;;;15.13;8.13;;;;;;;15.96;35.49;92361.22;5021610;28;20041;-90
2022/04/05 04:38:37;;;;;;;33.33;17.45;;;;;;;16.00;36.24;92367.84;5031371;28;20574;-88
2022/04/05 04:41:03;;;;;;;23.23;10.90;;;;;;;16.08;36.08;92367.94;5051320;28;20110;-87
2022/04/05 04:43:28;;;;;;;28.45;14.32;;;;;;;16.10;35.86;92368.91;5009990;28;20861;-86
2022/04/05 04:45:54;;;;;;;41.17;17.10;;;;;;;16.14;35.56;92371.34;5043012;28;20053;-85
2022/04/05 04:48:21;;;;;;;76.97;43.70;;;;;;;16.15;35.75;92369.34;5041477;28;20037;-89
2022/04/05 04:50:47;;;;;;;46.38;19.95;;;;;;;16.12;35.47;92376.56;5024761;28;20042;-90
2022/04/05 04:53:13;;;;;;;51.60;25.00;;;;;;;16.12;35.98;92373.84;5008543;28;20484;-91
2022/04/05 04:55:38;;;;;;;49.03;21.98;;;;;;;16.06;35.54;92370.47;5027381;28;20128;-90
2022/04/05 04:58:04;;;;;;;67.43;23.27;;;;;;;16.01;35.00;92382.22;5025181;28;20033;-89
2022/04/05 05:00:29;;;;;;;70.70;23.15;;;;;;;16.00;35.38;92388.91;5011351;28;20041;-90
2022/04/05 05:02:55;;;;;;;37.53;14.80;;;;;;;15.91;35.05;92383.84;5013163;28;20063;-89
2022/04/05 05:05:21;;;;;;;53.53;18.50;;;;;;;15.89;35.03;92375.44;5026578;28;20045;-90
2022/04/05 05:07:48;;;;;;;72.32;21.08;;;;;;;15.84;34.82;92385.19;5031682;28;20040;-90
2022/04/05 05:10:15;;;;;;;55.55;17.13;;;;;;;15.68;35.43;92395.06;5025885;28;20037;-90
2022/04/05 05:12:40;;;;;;;41.42;15.82;;;;;;;15.69;35.33;92393.81;5013354;28;20128;-89
2022/04/05 05:15:10;;;;;;;47.80;17.13;;;;;;;15.69;35.15;92404.72;5030025;28;20114;-91
2022/04/05 05:17:37;;;;;;;86.60;32.10;;;;;;;15.78;35.09;92406.34;5011576;28;20067;-92
2022/04/05 05:20:03;;;;;;;98.07;41.72;;;;;;;15.79;35.27;92402.38;5035059;28;20095;-93
2022/04/05 05:22:30;;;;;;;86.78;44.10;;;;;;;15.82;35.30;92404.03;5013157;28;20044;-90
2022/04/05 05:24:55;;;;;;;72.63;37.97;;;;;;;15.82;35.79;92403.28;5019179;28;20116;-89
2022/04/05 05:27:21;;;;;;;57.97;31.40;;;;;;;15.77;35.29;92407.59;5029096;28;20135;-89
2022/04/05 05:29:46;;;;;;;76.57;37.17;;;;;;;15.77;35.48;92404.88;5032869;28;20037;-90
2022/04/05 05:32:12;;;;;;;87.43;30.13;;;;;;;15.71;35.95;92407.66;5038944;28;20514;-91
2022/04/05 05:34:38;;;;;;;78.15;32.58;;;;;;;15.73;35.70;92397.00;5015805;28;20051;-95
2022/04/05 05:37:05;;;;;;;77.60;35.83;;;;;;;15.72;35.16;92408.41;5022058;28;20041;-91
2022/04/05 05:39:32;;;;;;;72.65;34.88;;;;;;;15.74;35.59;92401.19;5033644;28;20487;-91
2022/04/05 05:41:58;;;;;;;76.30;36.65;;;;;;;15.75;36.07;92405.38;5049393;28;20049;-89
2022/04/05 05:44:24;;;;;;;100.53;38.72;;;;;;;15.75;35.74;92413.56;5045768;28;20041;-88
2022/04/05 05:46:50;;;;;;;75.57;41.80;;;;;;;15.78;35.33;92411.78;5033527;28;20045;-89
2022/04/05 05:49:15;;;;;;;103.43;45.05;;;;;;;15.82;35.84;92417.66;5013763;28;20087;-91
2022/04/05 05:51:41;;;;;;;103.35;46.60;;;;;;;15.86;35.53;92418.09;5029883;28;20076;-89
2022/04/05 05:54:07;;;;;;;107.03;49.92;;;;;;;15.88;35.94;92414.84;5002525;28;20045;-90
2022/04/05 05:56:33;;;;;;;88.68;49.13;;;;;;;15.89;35.42;92419.78;5016272;28;20053;-89
2022/04/05 05:59:00;;;;;;;89.30;48.72;;;;;;;15.95;35.64;92427.88;5035787;28;20477;-91
2022/04/05 06:01:25;;;;;;;109.45;54.63;;;;;;;16.00;35.82;92432.53;5018335;28;20045;-93
2022/04/05 06:03:51;;;;;;;110.28;54.83;;;;;;;16.01;35.55;92437.47;5035133;28;20304;-92
2022/04/05 06:06:17;;;;;;;72.75;45.28;;;;;;;16.06;36.13;92444.81;5032620;28;20447;-89
2022/04/05 06:08:42;;;;;;;163.93;110.97;;;;;;;16.08;36.18;92442.28;5025970;28;20052;-87
2022/04/05 06:11:08;;;;;;;297.35;232.80;;;;;;;16.15;35.96;92445.69;5029083;28;20037;-88
2022/04/05 06:13:34;;;;;;;64.80;43.03;;;;;;;16.14;35.87;92436.75;5031110;28;20439;-88
2022/04/05 06:16:01;;;;;;;71.15;43.55;;;;;;;16.16;35.68;92452.59;5032488;28;20478;-89
2022/04/05 06:18:27;;;;;;;56.65;39.70;;;;;;;16.16;35.58;92455.34;5016251;28;20041;-88
2022/04/05 06:20:52;;;;;;;70.15;39.03;;;;;;;16.18;35.86;92452.81;5031084;28;20138;-90
2022/04/05 06:23:18;;;;;;;54.30;32.95;;;;;;;16.11;36.38;92460.34;5038535;28;20040;-91
2022/04/05 06:25:43;;;;;;;53.38;33.85;;;;;;;16.11;36.35;92452.16;5023257;28;20501;-92
2022/04/05 06:28:09;;;;;;;75.53;38.42;;;;;;;16.12;35.57;92458.34;5017163;28;20049;-91
2022/04/05 06:30:36;;;;;;;76.20;37.80;;;;;;;16.18;35.59;92452.81;5035830;28;20680;-93
2022/04/05 06:33:14;;;;;;;86.53;51.03;;;;;;;16.18;35.49;92459.00;5035068;28;20075;-93
2022/04/05 06:35:43;;;;;;;134.38;76.07;;;;;;;16.17;35.62;92470.44;5031472;28;20049;-91
2022/04/05 06:38:09;;;;;;;125.03;64.85;;;;;;;16.20;35.46;92458.50;5018188;28;20033;-94
2022/04/05 06:40:35;;;;;;;127.75;58.60;;;;;;;16.15;35.49;92464.75;5026541;28;20053;-93
2022/04/05 06:43:00;;;;;;;104.05;59.30;;;;;;;16.11;35.51;92463.06;5017300;28;20091;-91
2022/04/05 06:45:26;;;;;;;128.15;66.22;;;;;;;16.19;35.55;92467.94;5050726;28;20035;-92
2022/04/05 06:47:51;;;;;;;153.60;81.80;;;;;;;16.16;36.20;92460.78;5032174;28;20111;-90
2022/04/05 06:50:26;;;;;;;157.25;80.43;;;;;;;16.19;35.82;92455.03;5019701;28;20039;-90
2022/04/05 06:52:54;;;;;;;150.82;89.82;;;;;;;16.15;36.25;92451.88;5018963;28;20103;-88
2022/04/05 06:55:19;;;;;;;154.60;79.95;;;;;;;16.18;35.48;92444.66;5027155;28;20037;-92
2022/04/05 06:57:45;;;;;;;152.48;78.00;;;;;;;16.15;35.88;92449.13;5029778;28;20094;-89
2022/04/05 07:00:23;;;;;;;;;;;;;;;;;;;;;
2022/04/05 07:02:51;;;;;;;69.07;38.15;;;;;;;16.05;35.82;92454.22;5044028;28;20500;-88
2022/04/05 07:05:16;;;;;;;70.82;32.58;;;;;;;16.01;35.94;92448.38;5015215;28;20627;-87
2022/04/05 07:07:42;;;;;;;81.38;38.30;;;;;;;16.00;35.97;92448.88;5030871;28;20128;-88
2022/04/05 07:10:09;;;;;;;143.55;53.03;;;;;;;15.98;36.92;92448.66;5031501;28;20040;-87
2022/04/05 07:12:35;;;;;;;102.68;47.28;;;;;;;15.97;37.68;92450.66;5041878;28;20053;-93
2022/04/05 07:15:00;;;;;;;115.40;52.55;;;;;;;15.99;38.78;92459.06;5032293;28;20048;-88
2022/04/05 07:17:26;;;;;;;121.60;55.72;;;;;;;16.00;38.35;92463.25;5011218;28;20038;-88
2022/04/05 07:19:52;;;;;;;103.30;54.35;;;;;;;16.01;39.52;92466.72;5031351;28;20045;-88
2022/04/05 07:22:17;;;;;;;106.25;54.80;;;;;;;16.01;39.46;92459.28;5015597;28;20037;-88
2022/04/05 07:24:43;;;;;;;97.50;51.22;;;;;;;16.05;39.32;92467.13;5029935;28;20036;-89
2022/04/05 07:27:08;;;;;;;112.25;56.42;;;;;;;16.07;38.78;92467.34;5026760;28;20045;-90
2022/04/05 07:29:34;;;;;;;102.32;54.42;;;;;;;16.01;39.43;92456.53;5014771;28;20395;-92
2022/04/05 07:32:00;;;;;;;112.40;50.78;;;;;;;16.03;39.92;92466.91;5016903;28;20086;-92
2022/04/05 07:34:26;;;;;;;111.18;51.65;;;;;;;16.07;39.99;92475.53;5025742;28;20044;-89
2022/04/05 07:36:52;;;;;;;91.38;48.42;;;;;;;16.06;39.97;92465.88;5030648;28;20037;-90
2022/04/05 07:39:21;;;;;;;129.60;53.05;;;;;;;16.06;39.40;92463.88;5012332;28;20045;-89
2022/04/05 07:41:46;;;;;;;112.25;54.35;;;;;;;16.05;39.57;92470.59;5029449;28;20045;-88
2022/04/05 07:44:12;;;;;;;113.57;48.17;;;;;;;16.05;39.60;92470.59;5009297;28;20059;-91
2022/04/05 07:46:37;;;;;;;105.07;52.00;;;;;;;16.07;38.76;92461.91;5045523;28;20099;-87
2022/04/05 07:49:03;;;;;;;94.55;49.75;;;;;;;16.11;38.61;92460.34;5047577;28;20590;-90
2022/04/05 07:51:28;;;;;;;113.10;52.30;;;;;;;16.12;38.72;92461.09;5046859;28;20072;-84
2022/04/05 07:53:55;;;;;;;99.43;49.03;;;;;;;16.08;38.36;92466.84;5014297;28;20051;-90
2022/04/05 07:56:20;;;;;;;89.60;48.63;;;;;;;16.15;38.43;92475.66;5013407;28;20048;-87
2022/04/05 07:58:46;;;;;;;91.40;45.25;;;;;;;16.18;38.44;92474.63;5030146;28;20407;-89
2022/04/05 08:01:11;;;;;;;87.30;43.13;;;;;;;16.19;38.20;92471.41;5028884;28;20280;-91
2022/04/05 08:03:37;;;;;;;97.53;47.03;;;;;;;16.17;38.50;92481.34;5023726;28;20473;-92
2022/04/05 08:06:03;;;;;;;101.50;44.00;;;;;;;16.18;38.32;92480.81;5048579;28;20041;-88
2022/04/05 08:08:29;;;;;;;108.15;49.67;;;;;;;16.17;38.33;92486.81;5043327;28;20060;-88
2022/04/05 08:10:55;;;;;;;144.75;48.78;;;;;;;16.19;38.45;92482.31;5027278;28;20052;-87
2022/04/05 08:13:20;;;;;;;111.65;45.72;;;;;;;16.19;38.70;92493.22;5039425;28;20033;-89
2022/04/05 08:15:47;;;;;;;111.65;44.42;;;;;;;16.21;38.47;92492.69;5025577;28;20163;-87
2022/04/05 08:18:12;;;;;;;99.70;43.45;;;;;;;16.22;38.54;92505.06;5046040;28;20099;-87
2022/04/05 08:20:39;;;;;;;104.22;42.40;;;;;;;16.23;38.08;92507.28;5029755;28;20044;-89
2022/04/05 08:23:06;;;;;;;89.97;42.25;;;;;;;16.26;38.40;92511.69;5024689;28;20033;-91
2022/04/05 08:25:32;;;;;;;100.43;39.65;;;;;;;16.25;38.23;92504.00;5036768;28;20779;-87
2022/04/05 08:27:57;;;;;;;83.10;40.70;;;;;;;16.25;38.28;92510.19;5028327;28;20045;-89
2022/04/05 08:30:23;;;;;;;90.85;40.47;;;;;;;16.25;38.15;92514.91;5043793;28;20334;-89
2022/04/05 08:32:48;;;;;;;99.18;43.03;;;;;;;16.24;38.15;92514.19;5026854;28;20033;-89
2022/04/05 08:35:18;;;;;;;106.93;43.80;;;;;;;16.23;38.45;92509.28;5042944;28;20037;-86
2022/04/05 08:37:44;;;;;;;94.03;43.75;;;;;;;16.17;38.25;92516.78;5032416;28;20037;-87
2022/04/05 08:40:11;;;;;;;100.53;44.42;;;;;;;16.25;38.21;92517.66;5009141;28;20039;-88
2022/04/05 08:42:38;;;;;;;90.00;41.67;;;;;;;16.25;38.39;92517.66;5049871;28;20044;-89
2022/04/05 08:45:06;;;;;;;90.00;40.50;;;;;;;16.25;38.43;92514.91;5032507;28;20040;-89
2022/04/05 08:47:33;;;;;;;92.22;43.00;;;;;;;16.28;38.21;92513.88;5016744;28;20100;-90
2022/04/05 08:49:58;;;;;;;78.30;35.85;;;;;;;16.24;38.45;92511.47;5034967;28;20135;-91
2022/04/05 08:52:24;;;;;;;99.03;45.45;;;;;;;16.24;38.21;92516.91;4997885;28;20047;-91
2022/04/05 08:54:49;;;;;;;92.60;43.10;;;;;;;16.28;38.29;92516.63;4994685;28;20128;-88
2022/04/05 08:57:15;;;;;;;98.50;43.75;;;;;;;16.28;38.50;92503.72;4970536;28;20397;-88
2022/04/05 08:59:41;;;;;;;96.30;43.30;;;;;;;16.29;38.45;92518.81;5004843;28;20068;-88
2022/04/05 09:02:07;;;;;;;93.57;41.65;;;;;;;16.24;38.19;92516.91;4967981;28;20055;-88
2022/04/05 09:04:33;;;;;;;96.55;40.97;;;;;;;16.29;38.15;92521.56;4982335;28;20050;-89
2022/04/05 09:07:19;;;;;;;91.30;42.05;;;;;;;16.31;38.27;92521.03;5004938;28;20146;-88
2022/04/05 09:09:45;;;;;;;109.50;50.72;;;;;;;16.31;38.14;92526.50;4987925;28;20612;-87
2022/04/05 09:12:17;;;;;;;106.32;57.40;;;;;;;16.29;38.86;92529.00;4956098;28;20038;-88
2022/04/05 09:14:42;;;;;;;117.00;67.65;;;;;;;16.26;38.43;92528.03;4956173;28;20068;-88
2022/04/05 09:17:09;;;;;;;143.90;76.18;;;;;;;16.28;38.46;92525.53;5021093;28;20038;-88
2022/04/05 09:19:38;;;;;;;141.40;67.10;;;;;;;16.27;38.54;92526.03;4987688;28;20049;-87
2022/04/05 09:22:04;;;;;;;161.73;91.18;;;;;;;16.29;38.34;92531.72;5018909;28;20069;-88
2022/04/05 09:24:33;;;;;;;147.38;79.05;;;;;;;16.32;38.54;92525.97;4988438;28;20046;-87
2022/04/05 09:26:59;;;;;;;163.60;87.53;;;;;;;16.28;38.60;92533.72;4956920;28;20514;-88
2022/04/05 09:29:39;;;;;;;140.07;77.30;;;;;;;16.27;38.66;92534.22;5003633;28;20042;-88
2022/04/05 09:32:05;;;;;;;146.77;85.05;;;;;;;16.28;38.62;92536.44;5002660;28;20086;-90
2022/04/05 09:34:30;;;;;;;143.52;80.65;;;;;;;16.31;38.67;92535.41;5014488;28;20037;-92
2022/04/05 09:36:55;;;;;;;134.48;81.32;;;;;;;16.30;38.41;92536.66;5031306;28;20041;-89
2022/04/05 09:39:23;;;;;;;140.23;83.88;;;;;;;16.33;38.24;92545.81;5021566;28;20506;-90
2022/04/05 09:42:07;;;;;;;124.38;70.97;;;;;;;16.31;38.80;92529.97;5041668;28;20049;-88
2022/04/05 09:44:37;;;;;;;151.98;67.20;;;;;;;16.32;38.87;92541.59;5027500;28;20052;-89
2022/04/05 09:47:10;;;;;;;177.85;71.43;;;;;;;16.30;38.36;92542.13;5029426;28;20040;-88
2022/04/05 09:49:38;;;;;;;190.88;68.38;;;;;;;16.33;38.23;92535.63;5025970;28;20440;-88
2022/04/05 09:52:25;;;;;;;174.23;63.30;;;;;;;16.34;38.44;92539.84;5027953;28;20041;-88
2022/04/05 09:54:50;;;;;;;194.43;63.38;;;;;;;16.34;38.32;92544.56;5046512;28;20044;-91
2022/04/05 09:57:30;;;;;;;205.10;69.85;;;;;;;16.31;38.61;92538.13;5028867;28;20048;-88
2022/04/05 10:00:07;;;;;;;372.58;93.78;;;;;;;16.33;38.40;92543.06;5047304;28;20075;-90
2022/04/05 10:02:33;;;;;;;221.15;71.40;;;;;;;16.30;38.65;92555.00;5017999;28;20053;-90
2022/04/05 10:05:02;;;;;;;227.18;73.60;;;;;;;16.29;38.19;92543.38;5014143;28;20095;-90
2022/04/05 10:07:29;;;;;;;212.27;72.97;;;;;;;16.29;38.29;92548.81;5011621;28;20102;-91
2022/04/05 10:09:55;;;;;;;217.73;69.10;;;;;;;16.32;38.61;92547.06;5016722;28;20037;-90
2022/04/05 10:12:20;;;;;;;222.57;69.43;;;;;;;16.32;38.46;92544.31;5042340;28;20044;-89
2022/04/05 10:14:46;;;;;;;190.57;67.80;;;;;;;16.28;38.50;92555.53;4995450;28;20660;-88
2022/04/05 10:17:11;;;;;;;197.88;69.35;;;;;;;16.35;38.63;92546.03;5024320;28;20288;-89
2022/04/05 10:19:37;;;;;;;146.82;61.55;;;;;;;16.34;38.34;92553.47;5028415;28;20480;-90
2022/04/05 10:22:02;;;;;;;147.10;58.92;;;;;;;16.33;38.61;92552.00;5028772;28;20484;-88
2022/04/05 10:24:28;;;;;;;156.75;59.92;;;;;;;16.31;38.35;92549.03;4995720;28;20176;-91
2022/04/05 10:26:53;;;;;;;149.93;56.78;;;;;;;16.31;38.44;92551.03;5024587;28;20041;-90
2022/04/05 10:29:22;;;;;;;168.40;58.33;;;;;;;16.33;38.32;92546.53;5015316;28;20086;-90
2022/04/05 10:31:54;;;;;;;139.00;57.33;;;;;;;16.32;38.41;92552.50;5016050;28;20560;-89
2022/04/05 10:34:24;;;;;;;132.32;55.30;;;;;;;16.29;38.32;92548.81;5014998;28;20040;-90
2022/04/05 10:37:17;;;;;;;144.75;54.45;;;;;;;16.30;38.56;92542.13;5038515;28;20140;-91
2022/04/05 10:39:43;;;;;;;131.00;49.33;;;;;;;16.31;38.52;92557.22;5012482;28;20037;-90
2022/04/05 10:42:08;;;;;;;122.03;48.20;;;;;;;16.29;37.93;92556.28;5011229;28;20049;-89
2022/04/05 10:44:34;;;;;;;118.22;48.08;;;;;;;16.31;38.48;92559.97;5028579;28;20042;-91
2022/04/05 10:47:03;;;;;;;122.15;44.83;;;;;;;16.32;38.40;92539.63;5010290;28;20480;-89
2022/04/05 10:49:42;;;;;;;83.50;34.63;;;;;;;16.29;39.08;92548.81;5032130;28;20115;-88
2022/04/05 10:52:12;;;;;;;111.75;47.30;;;;;;;16.33;38.15;92545.81;5046821;28;20057;-90
2022/04/05 10:54:49;;;;;;;100.97;46.90;;;;;;;16.33;38.28;92548.53;5016744;28;20060;-92
2022/04/05 10:57:30;;;;;;;112.63;54.70;;;;;;;16.34;38.50;92556.19;5006956;28;20038;-91
2022/04/05 10:59:57;;;;;;;108.15;53.22;;;;;;;16.34;38.08;92556.19;5007867;28;20048;-91
2022/04/05 11:02:35;;;;;;;104.30;50.15;;;;;;;16.32;38.41;92560.69;5049690;28;20041;-91
2022/04/05 11:05:08;;;;;;;90.78;48.13;;;;;;;16.36;38.46;92564.59;5046581;28;20034;-90
2022/04/05 11:07:52;;;;;;;101.70;44.15;;;;;;;16.36;38.44;92561.13;5031270;28;20037;-90
2022/04/05 11:10:20;;;;;;;97.32;43.67;;;;;;;16.36;38.26;92570.06;5045090;28;20046;-87
2022/04/05 11:12:46;;;;;;;83.15;41.55;;;;;;;16.39;38.24;92549.94;5030540;28;20072;-89
2022/04/05 11:15:14;;;;;;;99.70;52.42;;;;;;;16.38;38.35;92553.91;5030124;28;20722;-88
2022/04/05 11:17:41;;;;;;;101.80;58.88;;;;;;;16.38;38.89;92561.34;5046924;28;20041;-91
2022/04/05 11:20:07;;;;;;;152.23;69.03;;;;;;;16.41;38.43;92552.13;5033109;28;20041;-90